Skip Navigation Links
NOAA logo - Click to go to the NOAA homepage
NOAA's National Weather Service
Alaska Aviation Weather Unit
  NWS logo - Click to go to the NWS homepage
Left Navbar Graphic     02 AKDT = 10 GMT

   
NOAA is celebrating 200 years of science, service, and stewardship. Visit the NOAA 200th celebration Web site to learn more.
USA.gov is the U.S. Government's official Web portal to all Federal, state and local government Web resources and services.
Facebook
NWS on Facebook

AAWU Home :: Display TAF Add Bookmark
TAF PAHO 270533Z 2706/2806 05006KT P6SM SCT100
     FM280000 VRB03KT P6SM BKN060=
METAR PAHO 270453Z 02003KT 10SM CLR 01/M11 A2958 RMK AO2 SLP018
     T00061111 $=

METAR PAHO 270553Z AUTO 02003KT 10SM CLR M01/M11 A2957 RMK AO2 SLP015
     T10061111 10022 21006 56008 TSNO $=

METAR PAHO 270653Z AUTO 36003KT 10SM OVC100 M02/M11 A2957 RMK AO2
 SLP013 T10221106 TSNO $=

METAR PAHO 270753Z AUTO 00000KT 10SM OVC100 M02/M11 A2956 RMK AO2 SLP010
     T10171111 TSNO $=

METAR PAHO 270853Z AUTO 02003KT 10SM CLR M04/M11 A2955 RMK AO2 SLP007
     T10441111 400221044 58008 TSNO $=

METAR PAHO 270953Z AUTO 02005KT 10SM CLR M04/M11 A2954 RMK AO2 SLP004
     T10391111 TSNO $=


NOAA's National Weather Service
Alaska Aviation Weather Unit
6930 Sand Lake Road
Anchorage, AK 99502-1845
Disclaimer
Credits
Glossary
Privacy Policy
About Us
Career Opportunities
Contact AAWU Internet Services Site last modified: April, 17th 2012